ADDS METAR Data INFO
IDs: Format: Raw Decoded Include TAF

Data at: 0309 UTC 20 Jul 2018

PHOG 200254Z 04020G28KT 10SM FEW035 29/22 A2995 RMK AO2 PK WND 04029/0206 SLP147 T02890217 58013
PHOG 200154Z 04021G28KT 10SM FEW030 29/22 A2996 RMK AO2 PK WND 04030/0059 SLP151 T02940217
PHOG 200054Z 04023G31KT 10SM FEW035 SCT050 30/22 A2998 RMK AO2 PK WND 04031/0045 SLP156 T03000222
PHOG 192354Z 04022G31KT 10SM FEW035 SCT055 31/21 A2999 RMK AO2 PK WND 04031/2348 SLP160 T03110206 10322 20272 58008
PHOG 192254Z 05020G25KT 10SM FEW035 SCT055 31/19 A3000 RMK AO2 PK WND 05031/2202 SLP163 T03110194
PHOG 192154Z 06015G26KT 10SM FEW035 SCT065 31/19 A3001 RMK AO2 PK WND 06027/2124 SLP167 T03060194
PHOG 192054Z 07019G25KT 10SM FEW035 SCT065 31/21 A3001 RMK AO2 PK WND 06027/2022 SLP168 T03110206 58002
PHOG 191954Z 07017G25KT 10SM FEW025 SCT035 30/21 A3002 RMK AO2 SLP170 T03000211
PHOG 191854Z 06016G24KT 10SM FEW025 SCT035 28/21 A3003 RMK AO2 SLP172 T02830211
PHOG 191754Z 05016G21KT 10SM FEW035 27/20 A3002 RMK AO2 SLP169 T02720200 10272 20239 51011
PHOG 191654Z 08009KT 10SM FEW025 SCT043 26/21 A3001 RMK AO2 SLP168 T02610206
PHOG 191554Z 07007G15KT 10SM FEW025 SCT030 SCT045 24/21 A2999 RMK AO2 SLP161 T02440206
PHOG 191454Z AUTO 12004KT 10SM OVC039 25/19 A2999 RMK AO2 SLP159 T02500194 53001 TSNO
PHOG 191354Z AUTO 10008KT 10SM SCT041 24/19 A2997 RMK AO2 SLP154 T02440189 TSNO
PHOG 191254Z AUTO 10011G21KT 10SM SCT031 BKN044 25/21 A2997 RMK AO2 PK WND 07027/1213 SLP155 T02500211 TSNO
PHOG 191154Z AUTO 06016G27KT 10SM FEW039 25/22 A2998 RMK AO2 PK WND 06027/1145 SLP157 T02500217 10256 20250 58018 TSNO
PHOG 191054Z AUTO 05017G23KT 10SM FEW050 25/22 A3000 RMK AO2 SLP165 T02500217 TSNO
PHOG 190954Z AUTO 05014G23KT 10SM FEW055 25/22 A3003 RMK AO2 PK WND 05026/0905 SLP172 T02500222 403060239 TSNO
PHOG 190854Z 06015G25KT 10SM SCT055 25/22 A3004 RMK AO2 SLP176 T02500222 50008
PHOG 190754Z 05015G24KT 10SM FEW050 25/22 A3004 RMK AO2 PK WND 04026/0731 SLP178 T02500222
PHOG 190654Z 07013G24KT 10SM FEW025 SCT050 25/22 A3002 RMK AO2 SLP171 T02500217
PHOG 190554Z 04018G23KT 10SM FEW025 SCT050 26/21 A3001 RMK AO2 PK WND 06026/0459 SLP167 60000 T02560211 10300 20256 53016
PHOG 190454Z 06014G26KT 10SM FEW025 SCT050 26/22 A2999 RMK AO2 PK WND 08030/0357 SLP162 T02610217
PHOG 190354Z 07020G29KT 10SM FEW025 SCT050 27/22 A2997 RMK AO2 PK WND 06032/0321 SLP154 T02670217
PHOG 190254Z 07019G29KT 10SM FEW025 SCT050 27/22 A2996 RMK AO2 PK WND 06032/0220 SLP152 60000 T02720222 55002
PHOG 190154Z 06022G31KT 10SM FEW025 SCT055 29/22 A2996 RMK AO2 PK WND 07032/0055 RAE54 SLP149 P0000 T02890217
PHOG 190054Z 07023G33KT 10SM -RA FEW025 SCT055 29/22 A2996 RMK AO2 PK WND 08035/0030 SLP150 P0000 T02890222
PHOG 182354Z COR 07023G36KT 10SM FEW025 SCT050 31/23 A2997 RMK AO2 PK WND 06037/2307 SLP154 P0000 60000 T03060228 10306 20272 58016
PHOG 182254Z 07022G33KT 10SM -RA FEW025 SCT050 29/23 A2999 RMK AO2 PK WND 08035/2243 RAB17 SLP160 P0000 T02890233
PHOG 182154Z 06018G30KT 10SM FEW020 SCT050 29/23 A3001 RMK AO2 PK WND 07035/2123 RAB08E45 SLP166 P0000 T02940228
PHOG 182054Z 07020G29KT 10SM FEW020 SCT035 SCT060 31/23 A3002 RMK AO2 PK WND 07030/2023 SLP170 T03060228 55001
PHOG 181954Z 07018G26KT 10SM FEW020 SCT035 SCT060 29/23 A3002 RMK AO2 PK WND 06029/1935 SLP169 T02890228
PHOG 181854Z 06015G23KT 10SM SCT020 BKN030 28/23 A3002 RMK AO2 PK WND 04026/1838 SLP172 T02780228
PHOG 181754Z 04017KT 10SM FEW030 SCT050 27/24 A3002 RMK AO2 SLP171 T02720239 10272 20239 52007
PHOG 181654Z 04014KT 10SM FEW030 SCT050 25/22 A3002 RMK AO2 SLP171 T02500222
PHOG 181554Z 08010KT 10SM FEW020 SCT035 SCT050 24/21 A3000 RMK AO2 SLP164 T02440211 $